KSBD/SBD METAR and TAF weather

Enter ICAO airport designator
Station Type Date Time Source
KSBD METAR 2020/06/06 20:50 UTC NOAA

KSBD 062050Z 00000KT 5SM HZ BKN033 OVC044 19/12 A2995


Station Type Date Time Source
KSBD Decoded METAR 2020/06/06 20:50 UTC NOAA

Norton Air Force Base / San Bern, CA, United States (KSBD) 34-06N 117-14W
Jun 06, 2020 - 04:50 PM EDT / 2020.06.06 2050 UTC
Wind: Calm:0
Visibility: 5 mile(s):0
Sky conditions: overcast
Weather: haze
Temperature: 66 F (19 C)
Dew Point: 53 F (12 C)
Relative Humidity: 63%
Pressure (altimeter): 29.95 in. Hg (1014 hPa)
ob: KSBD 062050Z 00000KT 5SM HZ BKN033 OVC044 19/12 A2995
cycle: 21

Station Type Date Time Source
KSBD TAF 2020/06/06 18:24 UTC NOAA

TAF KSBD 061722Z 0618/0718 VRB05KT 4SM HZ BKN030
FM062100 25009KT P6SM BKN040
FM070600 VRB05KT P6SM SCT020 BKN040
FM071000 VRB05KT P6SM BKN020
FM071600 23006KT P6SM SCT020 BKN040

Example: see airport list